Time;durP1;ratioP1;P1;durP2;ratioP2;P2;SDS_P1;SDS_P2;PMS_P1;PMS_P2;Temp;Humidity;BMP_temperature;BMP_pressure;BME280_temperature;BME280_humidity;BME280_pressure;Samples;Min_cycle;Max_cycle;Signal;HPM_P1;HPM_P2
2024/03/08 00:01:57;;;;;;;7.32;5.75;;;;;;;;;;5061308;28;20020;-74
2024/03/08 00:04:23;;;;;;;6.07;5.47;;;;;;;;;;5078234;28;20376;-75
2024/03/08 00:06:50;;;;;;;8.10;6.35;;;;;;;;;;5083043;28;20495;-74
2024/03/08 00:09:16;;;;;;;10.27;6.35;;;;;;;;;;5067098;28;20068;-74
2024/03/08 00:11:43;;;;;;;8.50;5.82;;;;;;;;;;5071819;28;20132;-74
2024/03/08 00:14:09;;;;;;;9.52;6.57;;;;;;;;;;5086035;28;20032;-74
2024/03/08 00:16:38;;;;;;;6.68;6.07;;;;;;;;;;5079934;28;20523;-74
2024/03/08 00:19:04;;;;;;;7.18;5.75;;;;;;;;;;5078985;28;20462;-74
2024/03/08 00:21:31;;;;;;;6.50;5.78;;;;;;;;;;5064811;28;20093;-73
2024/03/08 00:23:57;;;;;;;5.68;5.18;;;;;;;;;;5059501;28;20040;-74
2024/03/08 00:26:23;;;;;;;7.90;5.97;;;;;;;;;;5051445;28;20054;-73
2024/03/08 00:28:49;;;;;;;6.63;6.03;;;;;;;;;;5080784;28;20037;-74
2024/03/08 00:31:16;;;;;;;6.40;5.85;;;;;;;;;;5074802;28;20032;-74
2024/03/08 00:33:42;;;;;;;7.90;6.47;;;;;;;;;;5081810;28;20074;-74
2024/03/08 00:36:08;;;;;;;7.75;6.90;;;;;;;;;;5078176;28;20519;-74
2024/03/08 00:38:34;;;;;;;8.15;6.63;;;;;;;;;;5078310;28;20036;-75
2024/03/08 00:41:00;;;;;;;9.48;6.95;;;;;;;;;;5078473;28;20036;-74
2024/03/08 00:43:26;;;;;;;9.68;7.45;;;;;;;;;;5073896;28;20028;-73
2024/03/08 00:45:52;;;;;;;10.73;7.70;;;;;;;;;;5065457;28;20184;-74
2024/03/08 00:48:17;;;;;;;13.50;6.95;;;;;;;;;;5084346;28;20048;-74
2024/03/08 00:50:45;;;;;;;10.68;5.63;;;;;;;;;;5070576;28;20051;-73
2024/03/08 00:53:14;;;;;;;12.00;7.30;;;;;;;;;;5078843;28;20020;-73
2024/03/08 00:55:40;;;;;;;9.13;5.95;;;;;;;;;;5065410;28;20980;-74
2024/03/08 00:58:05;;;;;;;9.05;6.00;;;;;;;;;;5082032;28;20052;-74
2024/03/08 01:00:31;;;;;;;10.75;4.95;;;;;;;;;;5077580;28;20181;-76
2024/03/08 01:02:57;;;;;;;5.82;5.32;;;;;;;;;;5066714;28;20047;-74
2024/03/08 01:05:24;;;;;;;7.82;6.30;;;;;;;;;;5069594;28;20089;-74
2024/03/08 01:07:51;;;;;;;9.15;7.05;;;;;;;;;;5060475;28;20547;-74
2024/03/08 01:10:17;;;;;;;8.00;5.97;;;;;;;;;;5068875;28;20063;-75
2024/03/08 01:12:45;;;;;;;9.70;8.40;;;;;;;;;;5054152;28;20139;-74
2024/03/08 01:15:11;;;;;;;11.30;6.93;;;;;;;;;;5065493;28;20028;-75
2024/03/08 01:17:37;;;;;;;10.60;7.32;;;;;;;;;;5063924;28;20059;-74
2024/03/08 01:20:03;;;;;;;8.98;5.95;;;;;;;;;;5082361;28;20519;-74
2024/03/08 01:22:29;;;;;;;7.70;5.85;;;;;;;;;;5080883;28;20115;-75
2024/03/08 01:24:56;;;;;;;6.45;5.72;;;;;;;;;;5083808;28;20048;-75
2024/03/08 01:27:22;;;;;;;6.00;5.40;;;;;;;;;;5075653;28;20047;-75
2024/03/08 01:29:48;;;;;;;4.60;4.20;;;;;;;;;;5085129;28;20090;-75
2024/03/08 01:32:14;;;;;;;5.40;4.68;;;;;;;;;;5083313;28;20111;-74
2024/03/08 01:34:40;;;;;;;7.07;6.07;;;;;;;;;;5062956;28;20028;-74
2024/03/08 01:37:07;;;;;;;5.38;4.88;;;;;;;;;;5079798;28;20039;-73
2024/03/08 01:39:32;;;;;;;4.88;4.40;;;;;;;;;;5064002;28;20052;-73
2024/03/08 01:41:58;;;;;;;8.20;5.35;;;;;;;;;;5046668;28;20051;-73
2024/03/08 01:44:24;;;;;;;5.22;4.72;;;;;;;;;;5080708;28;20102;-73
2024/03/08 01:46:52;;;;;;;5.07;4.60;;;;;;;;;;5083486;28;20559;-74
2024/03/08 01:49:20;;;;;;;6.30;5.05;;;;;;;;;;5052555;28;20045;-72
2024/03/08 01:51:46;;;;;;;7.68;5.78;;;;;;;;;;5067078;28;20121;-72
2024/03/08 01:54:13;;;;;;;5.78;5.13;;;;;;;;;;5073843;28;20384;-73
2024/03/08 01:56:39;;;;;;;6.72;4.63;;;;;;;;;;5078917;28;20032;-73
2024/03/08 01:59:07;;;;;;;3.28;3.05;;;;;;;;;;5081859;28;20048;-74
2024/03/08 02:01:33;;;;;;;6.38;5.18;;;;;;;;;;5077484;28;20063;-73
2024/03/08 02:03:59;;;;;;;6.28;5.25;;;;;;;;;;5083432;28;20081;-73
2024/03/08 02:06:25;;;;;;;5.45;4.65;;;;;;;;;;5080815;28;20458;-73
2024/03/08 02:08:51;;;;;;;4.90;4.40;;;;;;;;;;5079277;28;20427;-74
2024/03/08 02:11:18;;;;;;;4.47;3.97;;;;;;;;;;5062904;28;20028;-73
2024/03/08 02:13:44;;;;;;;5.00;4.57;;;;;;;;;;5069037;28;20036;-73
2024/03/08 02:16:10;;;;;;;5.45;4.95;;;;;;;;;;5080532;28;20480;-73
2024/03/08 02:18:36;;;;;;;5.97;5.38;;;;;;;;;;5082660;28;20032;-74
2024/03/08 02:21:02;;;;;;;6.47;5.00;;;;;;;;;;5080547;28;20032;-73
2024/03/08 02:23:29;;;;;;;7.22;5.22;;;;;;;;;;5081790;28;20373;-73
2024/03/08 02:25:56;;;;;;;5.60;4.93;;;;;;;;;;5080019;28;20028;-73
2024/03/08 02:28:22;;;;;;;6.15;5.63;;;;;;;;;;5067171;28;20048;-73
2024/03/08 02:30:48;;;;;;;8.95;6.03;;;;;;;;;;5060977;28;21021;-74
2024/03/08 02:33:16;;;;;;;9.82;6.15;;;;;;;;;;5087357;28;20042;-74
2024/03/08 02:35:45;;;;;;;8.02;5.95;;;;;;;;;;5079798;28;20051;-73
2024/03/08 02:38:21;;;;;;;6.72;5.20;;;;;;;;;;5081664;28;20419;-74
2024/03/08 02:40:47;;;;;;;6.32;5.65;;;;;;;;;;5080030;28;20153;-73
2024/03/08 02:43:17;;;;;;;6.55;5.95;;;;;;;;;;5080577;28;20047;-73
2024/03/08 02:45:44;;;;;;;10.13;5.78;;;;;;;;;;5066642;28;20036;-73
2024/03/08 02:48:10;;;;;;;9.27;6.22;;;;;;;;;;5086030;28;20173;-72
2024/03/08 02:50:36;;;;;;;7.55;5.78;;;;;;;;;;5081415;28;20036;-73
2024/03/08 02:53:02;;;;;;;6.13;5.22;;;;;;;;;;5080698;28;20039;-73
2024/03/08 02:55:29;;;;;;;7.53;5.93;;;;;;;;;;5078221;28;20106;-73
2024/03/08 02:57:55;;;;;;;10.63;6.15;;;;;;;;;;5082714;28;20428;-73
2024/03/08 03:00:23;;;;;;;9.98;6.20;;;;;;;;;;5082373;28;20056;-73
2024/03/08 03:02:53;;;;;;;6.00;5.40;;;;;;;;;;5045351;28;20152;-73
2024/03/08 03:05:20;;;;;;;9.25;5.97;;;;;;;;;;5079833;28;20024;-73
2024/03/08 03:07:46;;;;;;;6.28;5.65;;;;;;;;;;5082540;28;20049;-73
2024/03/08 03:10:12;;;;;;;11.55;6.00;;;;;;;;;;5074770;28;20044;-73
2024/03/08 03:12:38;;;;;;;7.93;6.25;;;;;;;;;;5064401;28;20028;-73
2024/03/08 03:15:04;;;;;;;7.07;5.80;;;;;;;;;;5079888;28;20020;-72
2024/03/08 03:17:30;;;;;;;6.38;5.20;;;;;;;;;;5079100;28;20045;-73
2024/03/08 03:19:56;;;;;;;7.35;5.13;;;;;;;;;;5078946;28;20111;-74
2024/03/08 03:22:22;;;;;;;6.90;4.72;;;;;;;;;;5060097;28;20032;-73
2024/03/08 03:24:51;;;;;;;6.13;4.60;;;;;;;;;;5082398;28;20036;-73
2024/03/08 03:27:20;;;;;;;9.38;4.95;;;;;;;;;;5081206;28;20123;-73
2024/03/08 03:29:45;;;;;;;4.30;3.35;;;;;;;;;;5077793;28;20978;-73
2024/03/08 03:32:12;;;;;;;5.00;4.53;;;;;;;;;;5077460;28;20115;-73
2024/03/08 03:34:38;;;;;;;2.70;2.50;;;;;;;;;;5062170;28;20028;-72
2024/03/08 03:37:04;;;;;;;5.13;4.25;;;;;;;;;;5060993;28;20548;-73
2024/03/08 03:39:48;;;;;;;3.92;3.63;;;;;;;;;;5076985;28;20511;-73
2024/03/08 03:42:16;;;;;;;3.83;3.53;;;;;;;;;;5078659;28;20132;-73
2024/03/08 03:44:47;;;;;;;3.90;3.40;;;;;;;;;;5083530;28;20086;-73
2024/03/08 03:47:13;;;;;;;6.35;4.13;;;;;;;;;;5067021;28;20028;-73
2024/03/08 03:49:40;;;;;;;5.43;4.30;;;;;;;;;;5068481;28;20043;-73
2024/03/08 03:52:06;;;;;;;3.40;3.15;;;;;;;;;;5079927;28;20028;-73
2024/03/08 03:54:32;;;;;;;3.15;2.97;;;;;;;;;;5077829;28;20492;-73
2024/03/08 03:56:58;;;;;;;4.05;3.72;;;;;;;;;;5062274;28;20033;-72
2024/03/08 03:59:24;;;;;;;2.15;2.08;;;;;;;;;;5081635;28;20100;-74
2024/03/08 04:01:50;;;;;;;3.65;3.20;;;;;;;;;;5059373;28;20059;-73
2024/03/08 04:04:16;;;;;;;4.18;3.78;;;;;;;;;;5067227;28;20505;-73
2024/03/08 04:06:44;;;;;;;4.95;4.45;;;;;;;;;;5077537;28;20051;-74
2024/03/08 04:09:12;;;;;;;3.60;3.13;;;;;;;;;;5078339;28;20520;-73
2024/03/08 04:11:38;;;;;;;2.92;2.72;;;;;;;;;;5064087;28;20036;-73
2024/03/08 04:14:05;;;;;;;5.40;4.90;;;;;;;;;;5079019;28;20044;-74
2024/03/08 04:16:31;;;;;;;5.22;4.35;;;;;;;;;;5079303;28;20032;-73
2024/03/08 04:18:57;;;;;;;6.47;4.68;;;;;;;;;;5077859;28;20040;-73
2024/03/08 04:21:23;;;;;;;5.35;4.85;;;;;;;;;;5066939;28;20039;-73
2024/03/08 04:23:49;;;;;;;3.35;3.17;;;;;;;;;;5050523;28;20036;-74
2024/03/08 04:26:18;;;;;;;4.05;3.25;;;;;;;;;;5053537;28;20036;-74
2024/03/08 04:28:44;;;;;;;6.13;5.55;;;;;;;;;;5057346;28;20044;-75
2024/03/08 04:31:10;;;;;;;4.93;4.43;;;;;;;;;;5060465;28;20063;-73
2024/03/08 04:33:36;;;;;;;6.22;5.68;;;;;;;;;;5075166;28;20515;-73
2024/03/08 04:36:04;;;;;;;12.38;5.88;;;;;;;;;;5071372;28;20040;-73
2024/03/08 04:38:30;;;;;;;5.35;4.85;;;;;;;;;;5075922;28;20050;-74
2024/03/08 04:40:59;;;;;;;5.72;5.22;;;;;;;;;;5061355;28;20082;-75
2024/03/08 04:43:30;;;;;;;4.78;4.32;;;;;;;;;;5063544;28;20384;-74
2024/03/08 04:45:56;;;;;;;13.10;3.40;;;;;;;;;;5067324;28;20044;-76
2024/03/08 04:48:22;;;;;;;4.32;3.25;;;;;;;;;;5061506;28;20511;-75
2024/03/08 04:50:48;;;;;;;3.63;3.42;;;;;;;;;;5059433;28;20032;-76
2024/03/08 04:53:15;;;;;;;1.77;1.70;;;;;;;;;;5062182;28;20062;-76
2024/03/08 04:55:41;;;;;;;6.70;5.35;;;;;;;;;;5078608;28;20118;-76
2024/03/08 04:58:07;;;;;;;6.38;5.78;;;;;;;;;;5079756;28;20135;-76
2024/03/08 05:00:35;;;;;;;4.35;4.05;;;;;;;;;;5081231;28;20101;-75
2024/03/08 05:03:01;;;;;;;7.18;4.72;;;;;;;;;;5058987;28;20035;-74
2024/03/08 05:05:29;;;;;;;5.72;5.22;;;;;;;;;;5076816;28;20037;-74
2024/03/08 05:07:54;;;;;;;4.28;3.88;;;;;;;;;;5073276;28;20202;-74
2024/03/08 05:10:20;;;;;;;5.32;4.82;;;;;;;;;;5078016;28;20537;-74
2024/03/08 05:12:47;;;;;;;4.75;4.40;;;;;;;;;;5041256;28;20514;-74
2024/03/08 05:15:12;;;;;;;4.70;4.30;;;;;;;;;;5073639;28;20029;-75
2024/03/08 05:17:40;;;;;;;5.05;4.55;;;;;;;;;;5075977;28;20109;-74
2024/03/08 05:20:08;;;;;;;3.83;3.58;;;;;;;;;;5079164;28;20360;-74
2024/03/08 05:22:34;;;;;;;5.00;4.57;;;;;;;;;;5075671;28;20029;-74
2024/03/08 05:25:00;;;;;;;6.78;6.07;;;;;;;;;;5075965;28;20032;-72
2024/03/08 05:27:28;;;;;;;6.53;5.90;;;;;;;;;;5077227;28;20047;-75
2024/03/08 05:29:54;;;;;;;6.35;5.53;;;;;;;;;;5074115;28;20043;-74
2024/03/08 05:32:20;;;;;;;8.68;6.85;;;;;;;;;;5078232;28;20032;-74
2024/03/08 05:34:46;;;;;;;6.38;5.85;;;;;;;;;;5075604;28;20055;-75
2024/03/08 05:37:12;;;;;;;7.68;6.88;;;;;;;;;;5066218;28;20028;-76
2024/03/08 05:39:38;;;;;;;9.18;7.28;;;;;;;;;;5081070;28;20081;-73
2024/03/08 05:42:04;;;;;;;8.88;7.55;;;;;;;;;;5076074;28;20492;-73
2024/03/08 05:44:30;;;;;;;11.55;7.13;;;;;;;;;;5073078;28;20055;-74
2024/03/08 05:46:56;;;;;;;6.75;5.72;;;;;;;;;;5055481;28;20594;-75
2024/03/08 05:49:22;;;;;;;10.05;7.20;;;;;;;;;;5047221;28;20051;-73
2024/03/08 05:51:48;;;;;;;8.00;7.20;;;;;;;;;;5077584;28;20032;-74
2024/03/08 05:54:14;;;;;;;14.93;7.45;;;;;;;;;;5073853;28;20547;-74
2024/03/08 05:56:43;;;;;;;4.05;3.70;;;;;;;;;;5061337;28;20040;-74
2024/03/08 05:59:10;;;;;;;10.45;8.02;;;;;;;;;;5077671;28;20105;-74
2024/03/08 06:01:40;;;;;;;7.90;6.70;;;;;;;;;;5078556;28;20075;-75
2024/03/08 06:04:07;;;;;;;7.07;6.20;;;;;;;;;;5061958;28;20030;-75
2024/03/08 06:06:33;;;;;;;8.38;6.55;;;;;;;;;;5076062;28;20125;-76
2024/03/08 06:08:59;;;;;;;6.45;5.43;;;;;;;;;;5079379;28;20048;-76
2024/03/08 06:11:26;;;;;;;8.82;7.65;;;;;;;;;;5081980;28;20032;-75
2024/03/08 06:13:59;;;;;;;7.00;6.30;;;;;;;;;;5082918;28;20166;-75
2024/03/08 06:16:28;;;;;;;13.65;7.82;;;;;;;;;;5075921;28;20036;-77
2024/03/08 06:18:58;;;;;;;8.48;6.28;;;;;;;;;;5078603;28;20147;-76
2024/03/08 06:21:26;;;;;;;8.23;6.72;;;;;;;;;;5088404;28;20324;-75
2024/03/08 06:23:55;;;;;;;8.02;7.20;;;;;;;;;;5077319;28;20077;-77
2024/03/08 06:26:21;;;;;;;9.27;8.32;;;;;;;;;;5082278;28;20028;-74
2024/03/08 06:28:47;;;;;;;7.05;5.75;;;;;;;;;;5067179;28;20092;-76
2024/03/08 06:31:14;;;;;;;4.60;4.20;;;;;;;;;;5084221;28;20043;-76
2024/03/08 06:33:40;;;;;;;11.65;6.82;;;;;;;;;;5064323;28;20035;-76
2024/03/08 06:36:07;;;;;;;8.93;7.25;;;;;;;;;;5072948;28;20031;-77
2024/03/08 06:38:32;;;;;;;4.80;4.30;;;;;;;;;;5058466;28;20049;-76
2024/03/08 06:40:59;;;;;;;8.77;6.32;;;;;;;;;;5044224;28;20021;-76
2024/03/08 06:43:32;;;;;;;2.63;2.42;;;;;;;;;;5074530;28;20047;-76
2024/03/08 06:45:58;;;;;;;10.63;7.10;;;;;;;;;;5061608;28;20033;-76
2024/03/08 06:48:24;;;;;;;8.38;7.53;;;;;;;;;;5067835;28;20102;-75
2024/03/08 06:50:50;;;;;;;9.98;7.22;;;;;;;;;;5084111;28;20455;-75
2024/03/08 06:53:18;;;;;;;7.45;5.82;;;;;;;;;;5082054;28;20064;-75
2024/03/08 06:55:45;;;;;;;5.68;5.00;;;;;;;;;;5079080;28;20043;-75
2024/03/08 06:58:10;;;;;;;12.73;6.00;;;;;;;;;;5063263;28;20048;-75
2024/03/08 07:00:37;;;;;;;7.95;5.72;;;;;;;;;;5059722;28;20431;-75
2024/03/08 07:03:03;;;;;;;4.20;3.75;;;;;;;;;;5036609;28;20042;-75
2024/03/08 07:05:29;;;;;;;6.65;6.03;;;;;;;;;;5036395;28;20033;-75
2024/03/08 07:07:55;;;;;;;4.10;3.35;;;;;;;;;;5029649;28;20041;-74
2024/03/08 07:10:23;;;;;;;10.52;6.57;;;;;;;;;;5053374;28;20055;-74
2024/03/08 07:12:49;;;;;;;8.50;5.85;;;;;;;;;;5043338;28;20115;-74
2024/03/08 07:15:16;;;;;;;7.47;6.78;;;;;;;;;;5060795;28;20461;-74
2024/03/08 07:17:44;;;;;;;8.73;7.80;;;;;;;;;;5067620;28;20045;-75
2024/03/08 07:20:12;;;;;;;13.65;6.85;;;;;;;;;;5081358;28;20041;-75
2024/03/08 07:22:38;;;;;;;16.33;7.88;;;;;;;;;;5070275;28;20031;-75
2024/03/08 07:27:36;;;;;;;5.68;5.18;;;;;;;;;;5068248;28;20049;-75
2024/03/08 07:30:02;;;;;;;4.07;3.17;;;;;;;;;;5063935;28;20437;-74
2024/03/08 07:32:31;;;;;;;14.80;7.63;;;;;;;;;;5081602;28;20056;-75
2024/03/08 07:34:58;;;;;;;7.43;6.10;;;;;;;;;;5058711;28;20119;-74
2024/03/08 07:37:24;;;;;;;10.13;6.60;;;;;;;;;;5058790;28;20056;-74
2024/03/08 07:39:50;;;;;;;8.30;7.32;;;;;;;;;;5058784;28;20025;-74
2024/03/08 07:42:16;;;;;;;8.55;7.00;;;;;;;;;;5059412;28;20197;-73
2024/03/08 07:44:42;;;;;;;6.22;5.63;;;;;;;;;;5063505;28;20032;-73
2024/03/08 07:47:09;;;;;;;5.80;4.35;;;;;;;;;;5052233;28;20131;-74
2024/03/08 07:49:37;;;;;;;6.32;4.78;;;;;;;;;;5046336;28;20040;-74
2024/03/08 07:52:04;;;;;;;4.25;3.95;;;;;;;;;;5057237;28;20059;-74
2024/03/08 07:54:30;;;;;;;3.72;3.42;;;;;;;;;;5061136;28;20470;-72
2024/03/08 07:56:56;;;;;;;8.45;6.60;;;;;;;;;;5053941;28;20120;-73
2024/03/08 07:59:22;;;;;;;8.18;6.80;;;;;;;;;;5061125;28;20139;-73
2024/03/08 08:01:48;;;;;;;7.20;5.88;;;;;;;;;;5064066;28;20039;-73
2024/03/08 08:04:14;;;;;;;9.27;8.25;;;;;;;;;;5062442;28;20036;-73
2024/03/08 08:06:43;;;;;;;9.25;7.70;;;;;;;;;;5061401;28;20559;-72
2024/03/08 08:09:14;;;;;;;18.67;7.05;;;;;;;;;;5055941;28;20059;-73
2024/03/08 08:11:43;;;;;;;12.32;7.40;;;;;;;;;;5060943;28;20570;-72
2024/03/08 08:14:12;;;;;;;20.40;8.43;;;;;;;;;;5060370;28;20119;-73
2024/03/08 08:16:41;;;;;;;9.65;7.47;;;;;;;;;;5046640;28;20070;-74
2024/03/08 08:19:07;;;;;;;8.90;7.88;;;;;;;;;;5052021;28;20051;-73
2024/03/08 08:21:39;;;;;;;9.35;5.97;;;;;;;;;;5060862;28;20024;-73
2024/03/08 08:24:06;;;;;;;10.38;7.40;;;;;;;;;;5060400;28;20504;-74
2024/03/08 08:26:32;;;;;;;9.90;7.22;;;;;;;;;;5057306;28;20025;-72
2024/03/08 08:28:59;;;;;;;13.95;6.38;;;;;;;;;;5064707;28;20504;-73
2024/03/08 08:31:25;;;;;;;10.18;7.78;;;;;;;;;;5066870;28;20395;-74
2024/03/08 08:33:57;;;;;;;9.00;8.10;;;;;;;;;;5059214;28;20032;-75
2024/03/08 08:36:24;;;;;;;8.13;6.55;;;;;;;;;;5058593;28;20626;-73
2024/03/08 08:38:50;;;;;;;9.32;8.35;;;;;;;;;;5023612;28;20138;-74
2024/03/08 08:41:17;;;;;;;8.23;7.47;;;;;;;;;;5037769;28;20084;-73
2024/03/08 08:43:45;;;;;;;5.88;5.38;;;;;;;;;;5044068;28;20088;-73
2024/03/08 08:46:14;;;;;;;8.98;8.00;;;;;;;;;;5041795;28;20048;-73
2024/03/08 08:48:45;;;;;;;7.40;5.93;;;;;;;;;;5044819;28;20787;-73
2024/03/08 08:51:15;;;;;;;12.57;7.80;;;;;;;;;;5065520;28;20058;-73
2024/03/08 08:53:42;;;;;;;11.40;7.95;;;;;;;;;;5045030;28;20069;-73
2024/03/08 08:56:09;;;;;;;7.43;5.75;;;;;;;;;;5062265;28;20048;-73
2024/03/08 08:58:34;;;;;;;8.35;6.10;;;;;;;;;;5051020;28;20441;-74
2024/03/08 09:01:01;;;;;;;8.63;7.78;;;;;;;;;;5069250;28;20044;-73
2024/03/08 09:03:29;;;;;;;9.63;8.35;;;;;;;;;;5050296;28;20081;-74
2024/03/08 09:05:56;;;;;;;8.50;5.55;;;;;;;;;;5071251;28;20036;-73
2024/03/08 09:08:23;;;;;;;9.60;7.47;;;;;;;;;;5038913;28;20131;-73
2024/03/08 09:10:49;;;;;;;8.35;7.63;;;;;;;;;;5059027;28;20043;-74
2024/03/08 09:13:15;;;;;;;9.43;7.85;;;;;;;;;;5064864;28;20105;-76
2024/03/08 09:15:41;;;;;;;13.05;8.30;;;;;;;;;;5058059;28;20032;-73
2024/03/08 09:18:08;;;;;;;10.38;7.22;;;;;;;;;;5065338;28;20174;-74
2024/03/08 09:20:37;;;;;;;14.30;8.40;;;;;;;;;;5077604;28;20036;-75
2024/03/08 09:23:03;;;;;;;14.95;10.43;;;;;;;;;;5081665;28;20070;-73
2024/03/08 09:25:30;;;;;;;11.60;8.57;;;;;;;;;;5066264;28;20380;-73
2024/03/08 09:27:56;;;;;;;10.23;8.88;;;;;;;;;;5084803;28;20105;-74
2024/03/08 09:30:22;;;;;;;14.55;5.88;;;;;;;;;;5067211;28;20157;-73
2024/03/08 09:32:47;;;;;;;6.78;6.18;;;;;;;;;;5051200;28;20592;-73
2024/03/08 09:35:13;;;;;;;4.65;4.25;;;;;;;;;;5064598;28;20029;-74
2024/03/08 09:37:39;;;;;;;9.18;7.40;;;;;;;;;;5068063;28;20384;-76
2024/03/08 09:40:09;;;;;;;6.97;5.93;;;;;;;;;;5074040;28;20048;-80
2024/03/08 09:42:37;;;;;;;7.32;5.93;;;;;;;;;;5074048;28;20391;-81
2024/03/08 09:45:08;;;;;;;8.18;5.35;;;;;;;;;;5085625;28;20040;-79
2024/03/08 09:47:38;;;;;;;20.15;9.15;;;;;;;;;;5088419;28;20051;-79
2024/03/08 09:50:06;;;;;;;4.97;4.57;;;;;;;;;;5093676;28;20093;-82
2024/03/08 09:52:32;;;;;;;9.57;8.35;;;;;;;;;;5090946;28;20055;-77
2024/03/08 09:55:00;;;;;;;7.90;7.15;;;;;;;;;;5101074;28;20039;-84
2024/03/08 09:58:16;;;;;;;9.30;6.95;;;;;;;;;;5072781;28;20096;-82
2024/03/08 10:00:36;;;;;;;9.18;8.25;;;;;;;;;;5109264;28;20063;-82
2024/03/08 10:03:03;;;;;;;6.15;5.13;;;;;;;;;;5070928;28;20039;-81
2024/03/08 10:05:32;;;;;;;12.60;9.25;;;;;;;;;;5112187;28;20032;-83
2024/03/08 10:07:58;;;;;;;12.50;8.90;;;;;;;;;;5099162;28;20033;-82
2024/03/08 10:10:25;;;;;;;10.18;8.80;;;;;;;;;;5073646;28;20047;-82
2024/03/08 10:12:51;;;;;;;9.05;8.15;;;;;;;;;;5080639;28;20107;-82
2024/03/08 10:15:18;;;;;;;13.40;8.85;;;;;;;;;;5069285;28;20047;-82
2024/03/08 10:17:44;;;;;;;9.40;8.40;;;;;;;;;;5085825;28;20056;-82
2024/03/08 10:20:14;;;;;;;6.70;5.78;;;;;;;;;;5094251;28;20040;-81
2024/03/08 10:22:42;;;;;;;9.15;8.27;;;;;;;;;;5048551;28;20051;-79
2024/03/08 10:25:11;;;;;;;9.55;8.57;;;;;;;;;;5092985;28;20028;-83
2024/03/08 10:27:42;;;;;;;9.38;8.40;;;;;;;;;;5092583;28;20423;-76
2024/03/08 10:30:10;;;;;;;8.13;6.05;;;;;;;;;;5064555;28;20059;-77
2024/03/08 10:32:36;;;;;;;9.95;8.80;;;;;;;;;;5080199;28;20202;-75
2024/03/08 10:35:04;;;;;;;9.82;8.00;;;;;;;;;;5068725;28;20126;-76
2024/03/08 10:37:33;;;;;;;11.18;8.27;;;;;;;;;;5084050;28;20059;-75
2024/03/08 10:40:10;;;;;;;12.18;8.70;;;;;;;;;;5082905;28;20032;-76
2024/03/08 10:42:40;;;;;;;10.50;9.38;;;;;;;;;;5086114;28;20052;-77
2024/03/08 10:45:30;;;;;;;8.82;5.70;;;;;;;;;;5065381;28;20118;-76
2024/03/08 10:48:18;;;;;;;13.68;9.55;;;;;;;;;;5056055;28;20045;-78
2024/03/08 10:50:46;;;;;;;8.32;7.10;;;;;;;;;;5050235;28;20344;-77
2024/03/08 10:53:13;;;;;;;9.10;8.18;;;;;;;;;;5057034;28;20032;-77
2024/03/08 10:55:41;;;;;;;6.20;5.70;;;;;;;;;;5062583;28;20068;-76
2024/03/08 10:58:08;;;;;;;6.68;6.10;;;;;;;;;;5063225;28;20032;-76
2024/03/08 11:00:34;;;;;;;9.07;8.18;;;;;;;;;;5077495;28;20044;-76
2024/03/08 11:03:03;;;;;;;6.80;6.00;;;;;;;;;;5066737;28;20036;-77
2024/03/08 11:05:38;;;;;;;9.15;7.50;;;;;;;;;;5066315;28;20494;-76
2024/03/08 11:08:18;;;;;;;16.65;9.00;;;;;;;;;;5074850;28;20049;-77
2024/03/08 11:10:53;;;;;;;11.63;8.35;;;;;;;;;;5084482;28;20044;-77
2024/03/08 11:13:56;;;;;;;13.88;7.50;;;;;;;;;;5047954;28;20557;-78
2024/03/08 11:16:22;;;;;;;;;;;;;;;;;;5004449;28;20030;-79
2024/03/08 11:18:49;;;;;;;4.20;4.00;;;;;;;;;;5036615;28;19923;-79
2024/03/08 11:21:15;;;;;;;11.77;9.40;;;;;;;;;;5083241;28;20028;-79
2024/03/08 11:23:58;;;;;;;11.73;10.23;;;;;;;;;;5037880;28;20607;-79
2024/03/08 11:26:24;;;;;;;6.53;5.90;;;;;;;;;;5063821;28;20491;-72
2024/03/08 11:28:55;;;;;;;12.13;9.05;;;;;;;;;;5060907;28;20045;-73
2024/03/08 11:31:25;;;;;;;6.57;6.05;;;;;;;;;;5077477;28;20028;-75
2024/03/08 11:33:53;;;;;;;7.53;5.63;;;;;;;;;;5072109;28;20098;-73
2024/03/08 11:36:22;;;;;;;8.63;7.80;;;;;;;;;;5069620;28;20033;-75
2024/03/08 11:38:48;;;;;;;8.35;7.18;;;;;;;;;;5056221;28;20052;-76
2024/03/08 11:41:19;;;;;;;6.47;5.85;;;;;;;;;;5032668;28;20047;-76
2024/03/08 11:43:46;;;;;;;7.28;6.68;;;;;;;;;;5058346;28;20122;-75
2024/03/08 11:46:12;;;;;;;8.13;7.45;;;;;;;;;;5076137;28;20092;-77
2024/03/08 11:48:41;;;;;;;4.97;4.47;;;;;;;;;;5041275;28;20047;-74
2024/03/08 11:51:08;;;;;;;7.78;7.03;;;;;;;;;;5083341;28;20125;-73
2024/03/08 11:53:35;;;;;;;9.40;8.32;;;;;;;;;;5063557;28;20024;-75
2024/03/08 11:56:11;;;;;;;4.07;3.75;;;;;;;;;;5076366;28;20082;-75
2024/03/08 11:58:37;;;;;;;10.20;9.07;;;;;;;;;;5056432;28;20040;-76
2024/03/08 12:01:04;;;;;;;8.65;7.53;;;;;;;;;;5075101;28;20083;-76
2024/03/08 12:03:33;;;;;;;6.65;5.90;;;;;;;;;;5047290;28;20035;-76
2024/03/08 12:06:00;;;;;;;8.57;7.60;;;;;;;;;;5059939;28;20032;-77
2024/03/08 12:08:29;;;;;;;9.70;6.93;;;;;;;;;;5028575;28;20055;-76
2024/03/08 12:10:59;;;;;;;7.70;6.70;;;;;;;;;;5081414;28;20032;-76
2024/03/08 12:13:29;;;;;;;8.50;6.50;;;;;;;;;;5063485;28;20036;-76
2024/03/08 12:15:58;;;;;;;11.70;6.70;;;;;;;;;;5060587;28;20040;-77
2024/03/08 12:18:24;;;;;;;10.25;8.88;;;;;;;;;;5071246;28;20471;-77
2024/03/08 12:20:50;;;;;;;9.02;8.10;;;;;;;;;;5057702;28;20034;-75
2024/03/08 12:23:16;;;;;;;10.27;7.75;;;;;;;;;;5065496;28;20032;-79
2024/03/08 12:25:42;;;;;;;10.55;8.45;;;;;;;;;;5058285;28;20381;-75
2024/03/08 12:28:10;;;;;;;13.70;9.07;;;;;;;;;;5047591;28;20048;-74
2024/03/08 12:30:37;;;;;;;16.80;9.35;;;;;;;;;;5077334;28;20446;-74
2024/03/08 12:33:03;;;;;;;10.57;9.45;;;;;;;;;;5062817;28;20539;-73
2024/03/08 12:35:30;;;;;;;5.15;4.65;;;;;;;;;;5062588;28;20101;-73
2024/03/08 12:40:41;;;;;;;9.88;7.72;;;;;;;;;;5077697;28;20040;-74
2024/03/08 12:43:08;;;;;;;8.68;7.68;;;;;;;;;;5077176;28;20028;-75
2024/03/08 12:45:33;;;;;;;12.88;7.65;;;;;;;;;;5045698;28;20034;-76
2024/03/08 12:47:59;;;;;;;7.93;7.13;;;;;;;;;;5075277;28;20041;-78
2024/03/08 12:50:25;;;;;;;11.00;9.07;;;;;;;;;;5080749;28;20041;-78
2024/03/08 12:52:55;;;;;;;11.07;8.20;;;;;;;;;;5049560;28;20358;-77
2024/03/08 12:55:21;;;;;;;7.00;6.32;;;;;;;;;;5071779;28;20635;-78
2024/03/08 12:57:48;;;;;;;11.65;9.15;;;;;;;;;;5075546;28;20049;-78
2024/03/08 13:00:19;;;;;;;8.85;7.85;;;;;;;;;;5050338;28;20052;-78
2024/03/08 13:02:49;;;;;;;6.07;5.47;;;;;;;;;;5063798;28;20028;-78
2024/03/08 13:05:15;;;;;;;9.80;7.33;;;;;;;;;;5082098;28;20119;-78
2024/03/08 13:07:45;;;;;;;11.88;7.65;;;;;;;;;;5068226;28;20118;-77
2024/03/08 13:10:14;;;;;;;5.37;4.87;;;;;;;;;;5092126;28;20044;-77
2024/03/08 13:12:41;;;;;;;13.18;6.47;;;;;;;;;;5079257;28;20523;-78
2024/03/08 13:15:44;;;;;;;8.70;7.72;;;;;;;;;;5059429;28;20028;-76
2024/03/08 13:18:30;;;;;;;7.55;6.95;;;;;;;;;;5029787;28;20064;-76
2024/03/08 13:21:09;;;;;;;;;;;;;;;;;;;;;
2024/03/08 13:23:47;;;;;;;9.65;8.00;;;;;;;;;;5064297;28;20609;-74
2024/03/08 13:26:31;;;;;;;;;;;;;;;;;;;;;
2024/03/08 13:29:25;;;;;;;11.40;9.05;;;;;;;;;;5047596;28;20072;-74
2024/03/08 13:31:53;;;;;;;7.63;6.93;;;;;;;;;;5080602;28;20036;-76
2024/03/08 13:34:18;;;;;;;10.40;6.70;;;;;;;;;;5066767;28;20032;-77
2024/03/08 13:36:46;;;;;;;9.70;8.27;;;;;;;;;;5081723;28;20032;-75
2024/03/08 13:39:20;;;;;;;8.93;6.85;;;;;;;;;;5081610;28;20040;-75
2024/03/08 13:41:46;;;;;;;7.90;7.20;;;;;;;;;;5060022;28;20067;-77
2024/03/08 13:44:12;;;;;;;8.98;7.45;;;;;;;;;;5062844;28;20040;-77
2024/03/08 13:46:38;;;;;;;4.75;4.35;;;;;;;;;;5083130;28;20019;-76
2024/03/08 13:49:07;;;;;;;7.80;7.05;;;;;;;;;;5056221;28;20093;-75
2024/03/08 13:51:34;;;;;;;6.05;5.50;;;;;;;;;;5079504;28;21060;-77
2024/03/08 13:54:00;;;;;;;5.72;5.22;;;;;;;;;;5070768;28;20032;-79
2024/03/08 13:56:26;;;;;;;4.63;4.05;;;;;;;;;;5076603;28;20032;-79
2024/03/08 13:58:52;;;;;;;6.32;4.30;;;;;;;;;;5049231;28;20055;-74
2024/03/08 14:01:18;;;;;;;5.80;5.20;;;;;;;;;;5065341;28;20036;-79
2024/03/08 14:03:44;;;;;;;5.25;4.75;;;;;;;;;;5058131;28;20044;-78
2024/03/08 14:06:10;;;;;;;6.35;5.82;;;;;;;;;;5071686;28;20024;-78
2024/03/08 14:08:39;;;;;;;6.13;4.97;;;;;;;;;;5072529;28;20048;-78
2024/03/08 14:11:12;;;;;;;6.72;6.07;;;;;;;;;;5083085;28;20040;-78
2024/03/08 14:13:47;;;;;;;10.43;8.13;;;;;;;;;;5097823;28;20081;-78
2024/03/08 14:16:13;;;;;;;8.45;5.68;;;;;;;;;;5081221;28;20040;-79
2024/03/08 14:18:39;;;;;;;4.88;4.47;;;;;;;;;;5062038;28;20582;-77
2024/03/08 14:21:05;;;;;;;11.68;5.25;;;;;;;;;;5072167;28;20138;-78
2024/03/08 14:23:32;;;;;;;7.80;7.07;;;;;;;;;;5072313;28;20496;-78
2024/03/08 14:25:59;;;;;;;7.53;6.15;;;;;;;;;;5084569;28;20032;-78
2024/03/08 14:28:27;;;;;;;6.35;5.13;;;;;;;;;;5085038;28;20043;-79
2024/03/08 14:30:53;;;;;;;9.73;8.65;;;;;;;;;;5051787;28;20416;-78
2024/03/08 14:33:19;;;;;;;6.32;5.70;;;;;;;;;;5069224;28;20028;-78
2024/03/08 14:35:47;;;;;;;6.35;5.60;;;;;;;;;;5068372;28;20951;-78
2024/03/08 14:38:13;;;;;;;3.92;3.63;;;;;;;;;;5089025;28;20050;-78
2024/03/08 14:40:39;;;;;;;6.68;6.07;;;;;;;;;;5087752;28;20638;-78
2024/03/08 14:43:05;;;;;;;7.10;6.30;;;;;;;;;;5077734;28;20028;-76
2024/03/08 14:45:31;;;;;;;4.55;3.95;;;;;;;;;;5081211;28;20120;-75
2024/03/08 14:47:57;;;;;;;8.50;5.60;;;;;;;;;;5046655;28;20040;-77
2024/03/08 14:50:23;;;;;;;6.10;5.43;;;;;;;;;;5087039;28;20032;-77
2024/03/08 14:52:50;;;;;;;6.20;5.60;;;;;;;;;;5084945;28;20027;-76